Time;durP1;ratioP1;P1;durP2;ratioP2;P2;SDS_P1;SDS_P2;PMS_P1;PMS_P2;Temp;Humidity;BMP_temperature;BMP_pressure;BME280_temperature;BME280_humidity;BME280_pressure;Samples;Min_cycle;Max_cycle;Signal;HPM_P1;HPM_P2
2022/03/08 00:01:32;;;;;;;16.00;11.43;;;;;;;4.05;64.24;94282.75;5074207;28;20178;-77
2022/03/08 00:03:58;;;;;;;16.40;13.60;;;;;;;3.78;64.56;94286.50;5068448;28;20420;-78
2022/03/08 00:06:24;;;;;;;18.67;13.73;;;;;;;4.15;63.76;94284.38;5053737;28;20491;-77
2022/03/08 00:08:50;;;;;;;15.77;11.77;;;;;;;4.37;63.29;94278.50;5075983;28;20178;-78
2022/03/08 00:11:16;;;;;;;17.77;13.70;;;;;;;4.18;63.55;94274.50;5071034;28;20253;-77
2022/03/08 00:13:42;;;;;;;14.90;12.20;;;;;;;3.62;64.64;94287.28;5081467;28;20198;-76
2022/03/08 00:16:08;;;;;;;14.53;12.93;;;;;;;4.10;63.76;94284.88;5078243;28;20423;-77
2022/03/08 00:18:33;;;;;;;14.00;10.30;;;;;;;4.08;63.65;94285.03;5059905;28;20432;-77
2022/03/08 00:20:59;;;;;;;8.33;7.37;;;;;;;3.39;65.29;94281.09;5076420;28;20177;-77
2022/03/08 00:23:25;;;;;;;15.37;11.67;;;;;;;3.37;65.61;94288.22;5078623;28;20188;-77
2022/03/08 00:25:51;;;;;;;14.77;10.83;;;;;;;3.24;66.20;94293.84;5066396;28;20198;-78
2022/03/08 00:28:17;;;;;;;15.27;12.50;;;;;;;3.45;65.32;94283.06;5076103;28;20480;-77
2022/03/08 00:30:42;;;;;;;19.20;14.00;;;;;;;3.58;65.05;94280.00;5084077;28;20186;-77
2022/03/08 00:33:08;;;;;;;15.27;11.97;;;;;;;3.35;66.03;94288.38;5085465;28;20173;-76
2022/03/08 00:35:33;;;;;;;17.57;13.60;;;;;;;3.84;64.31;94285.03;5082286;28;20224;-76
2022/03/08 00:37:59;;;;;;;15.30;12.87;;;;;;;3.54;65.34;94287.28;5081355;28;20205;-77
2022/03/08 00:40:25;;;;;;;14.07;12.13;;;;;;;3.74;64.63;94285.19;5078524;28;20209;-77
2022/03/08 00:42:51;;;;;;;14.83;12.40;;;;;;;3.77;64.65;94281.47;5079731;28;20162;-76
2022/03/08 00:45:17;;;;;;;16.97;13.03;;;;;;;3.94;63.62;94282.28;5078162;28;20459;-77
2022/03/08 00:47:44;;;;;;;8.30;5.70;;;;;;;3.48;64.70;94280.97;5083238;28;20458;-77
2022/03/08 00:50:13;;;;;;;16.93;12.60;;;;;;;3.99;63.29;94278.22;5068862;28;20441;-77
2022/03/08 00:52:39;;;;;;;16.80;13.40;;;;;;;4.03;62.93;94278.72;5078038;28;20417;-76
2022/03/08 00:55:06;;;;;;;20.13;14.00;;;;;;;3.98;63.15;94279.19;5078262;28;20439;-76
2022/03/08 00:57:31;;;;;;;14.33;11.50;;;;;;;4.14;61.75;94272.41;5086304;28;20796;-77
2022/03/08 00:59:56;;;;;;;15.80;12.37;;;;;;;3.40;64.20;94277.56;5057414;28;20459;-77
2022/03/08 01:02:22;;;;;;;10.03;8.03;;;;;;;3.64;63.53;94280.19;5080128;28;20177;-76
2022/03/08 01:04:47;;;;;;;14.73;12.57;;;;;;;3.58;64.57;94278.22;5079973;28;20202;-76
2022/03/08 01:07:14;;;;;;;16.00;11.33;;;;;;;2.90;65.40;94274.88;5058270;28;20193;-77
2022/03/08 01:09:40;;;;;;;19.20;14.27;;;;;;;3.82;62.85;94272.25;5078832;28;20178;-77
2022/03/08 01:12:06;;;;;;;18.43;13.60;;;;;;;3.29;64.29;94261.38;5082826;28;20418;-77
2022/03/08 01:14:32;;;;;;;20.90;14.13;;;;;;;3.24;64.62;94273.97;5074416;28;20453;-76
2022/03/08 01:16:57;;;;;;;16.37;12.30;;;;;;;3.84;63.11;94272.09;5077906;28;20419;-76
2022/03/08 01:19:23;;;;;;;20.37;14.80;;;;;;;3.69;63.42;94272.72;5079784;28;20196;-76
2022/03/08 01:21:49;;;;;;;17.10;13.43;;;;;;;4.14;61.81;94267.22;5075011;28;20173;-77
2022/03/08 01:24:14;;;;;;;12.87;9.63;;;;;;;3.45;63.50;94264.94;5079608;28;20173;-76
2022/03/08 01:26:40;;;;;;;15.70;12.43;;;;;;;4.04;62.29;94260.44;5064912;28;20507;-77
2022/03/08 01:29:06;;;;;;;15.90;13.87;;;;;;;4.14;61.55;94259.47;5070970;28;20174;-76
2022/03/08 01:31:31;;;;;;;16.30;12.93;;;;;;;3.95;61.82;94266.59;5079714;28;20179;-77
2022/03/08 01:33:57;;;;;;;12.93;10.27;;;;;;;3.31;63.25;94256.84;5069054;28;20458;-76
2022/03/08 01:36:24;;;;;;;16.30;10.23;;;;;;;3.63;62.87;94257.84;5061541;28;20531;-77
2022/03/08 01:38:50;;;;;;;21.10;15.40;;;;;;;3.59;62.77;94261.75;5069228;28;20201;-77
2022/03/08 01:41:16;;;;;;;17.87;14.03;;;;;;;4.06;61.01;94265.44;5064768;28;20938;-77
2022/03/08 01:43:41;;;;;;;18.60;14.63;;;;;;;3.72;61.67;94263.84;5065484;28;20182;-78
2022/03/08 01:46:07;;;;;;;17.00;13.10;;;;;;;3.44;62.67;94265.94;5080059;28;20463;-77
2022/03/08 01:48:32;;;;;;;21.13;13.90;;;;;;;3.44;62.32;94253.81;5077631;28;20186;-77
2022/03/08 01:50:58;;;;;;;20.93;14.47;;;;;;;3.50;61.95;94267.88;5066498;28;20173;-77
2022/03/08 01:53:24;;;;;;;19.10;14.30;;;;;;;3.78;61.21;94260.63;5068633;28;20184;-77
2022/03/08 01:55:50;;;;;;;18.50;14.73;;;;;;;3.72;61.94;94258.69;5066963;28;20185;-77
2022/03/08 01:58:16;;;;;;;20.70;15.80;;;;;;;3.65;61.73;94257.69;5065662;28;20185;-78
2022/03/08 02:00:41;;;;;;;21.03;15.27;;;;;;;3.76;61.50;94262.56;5078128;28;20983;-77
2022/03/08 02:03:07;;;;;;;23.40;15.30;;;;;;;3.09;63.53;94255.69;5063930;28;20178;-78
2022/03/08 02:05:32;;;;;;;19.30;16.10;;;;;;;3.30;63.14;94257.84;5059098;28;20268;-78
2022/03/08 02:07:58;;;;;;;17.67;14.03;;;;;;;3.13;63.74;94261.34;5071830;28;20181;-77
2022/03/08 02:10:23;;;;;;;21.20;15.00;;;;;;;3.71;61.99;94265.59;5067135;28;20174;-77
2022/03/08 02:12:49;;;;;;;15.50;12.43;;;;;;;2.85;63.73;94263.38;5068744;28;20213;-77
2022/03/08 02:15:25;;;;;;;17.13;12.60;;;;;;;3.07;63.70;94257.63;5076332;28;20352;-77
2022/03/08 02:17:51;;;;;;;22.30;16.10;;;;;;;3.63;62.48;94263.03;5069310;28;20427;-77
2022/03/08 02:20:18;;;;;;;20.90;15.80;;;;;;;3.35;62.22;94259.13;5066152;28;20445;-76
2022/03/08 02:22:45;;;;;;;21.60;15.67;;;;;;;3.55;63.07;94264.78;5075266;28;20449;-77
2022/03/08 02:25:12;;;;;;;20.70;14.10;;;;;;;3.29;63.39;94261.38;5073725;28;20889;-78
2022/03/08 02:27:41;;;;;;;18.33;11.03;;;;;;;3.28;63.47;94262.34;5080221;28;20419;-77
2022/03/08 02:30:08;;;;;;;20.10;13.07;;;;;;;3.27;63.56;94270.25;5070700;28;20479;-76
2022/03/08 02:32:34;;;;;;;10.20;8.37;;;;;;;2.87;64.57;94269.19;5063519;28;20488;-78
2022/03/08 02:35:14;;;;;;;23.87;17.40;;;;;;;3.34;63.85;94271.25;5061288;28;20435;-76
2022/03/08 02:37:47;;;;;;;25.03;15.97;;;;;;;3.64;63.31;94274.19;5088995;28;20190;-77
2022/03/08 02:40:15;;;;;;;20.13;15.57;;;;;;;3.68;63.88;94280.66;5071991;28;20504;-77
2022/03/08 02:42:41;;;;;;;22.63;16.53;;;;;;;3.66;63.32;94270.47;5079369;28;20419;-77
2022/03/08 02:45:08;;;;;;;26.53;17.83;;;;;;;3.84;63.04;94282.44;5064417;28;20479;-77
2022/03/08 02:47:34;;;;;;;20.03;14.90;;;;;;;3.99;62.27;94280.03;5087193;28;20174;-77
2022/03/08 02:49:59;;;;;;;23.63;17.73;;;;;;;3.79;62.80;94282.13;5068078;28;20503;-77
2022/03/08 02:52:25;;;;;;;25.60;19.17;;;;;;;3.76;62.50;94279.88;5084221;28;20646;-75
2022/03/08 02:54:51;;;;;;;23.47;16.33;;;;;;;4.02;61.75;94283.09;5074201;28;20427;-77
2022/03/08 02:57:17;;;;;;;24.20;16.43;;;;;;;4.03;61.79;94283.91;5076375;28;20171;-77
2022/03/08 02:59:53;;;;;;;23.40;17.20;;;;;;;3.60;62.87;94288.41;5056194;28;20214;-77
2022/03/08 03:02:27;;;;;;;27.00;16.73;;;;;;;3.95;61.93;94292.47;5078631;28;20435;-78
2022/03/08 03:04:52;;;;;;;22.80;16.13;;;;;;;3.89;62.82;94288.75;5062871;28;20469;-76
2022/03/08 03:07:22;;;;;;;23.57;16.57;;;;;;;4.01;62.10;94291.81;5077194;28;20435;-77
2022/03/08 03:09:50;;;;;;;26.97;18.40;;;;;;;4.19;61.53;94283.88;5067349;28;20200;-77
2022/03/08 03:12:15;;;;;;;25.00;18.00;;;;;;;4.19;61.62;94298.59;5074955;28;20507;-77
2022/03/08 03:14:41;;;;;;;27.13;19.40;;;;;;;4.34;61.42;94301.34;5073576;28;20468;-77
2022/03/08 03:17:06;;;;;;;21.03;16.33;;;;;;;4.19;61.69;94299.44;5058335;28;20292;-78
2022/03/08 03:19:32;;;;;;;23.43;16.13;;;;;;;4.13;61.47;94302.66;5089711;28;20170;-77
2022/03/08 03:21:57;;;;;;;25.57;17.90;;;;;;;3.72;62.70;94300.88;5063314;28;20182;-77
2022/03/08 03:24:23;;;;;;;22.60;17.40;;;;;;;4.02;61.22;94302.97;5075313;28;20175;-78
2022/03/08 03:26:48;;;;;;;24.23;18.03;;;;;;;4.05;61.77;94297.47;5078997;28;20179;-78
2022/03/08 03:29:13;;;;;;;28.87;19.50;;;;;;;4.26;61.28;94309.94;5058624;28;20178;-78
2022/03/08 03:31:39;;;;;;;27.63;19.53;;;;;;;4.21;61.58;94307.00;5080565;28;20190;-77
2022/03/08 03:34:04;;;;;;;24.00;16.53;;;;;;;4.24;61.38;94301.50;5072177;28;20650;-78
2022/03/08 03:36:30;;;;;;;19.80;16.20;;;;;;;4.47;60.89;94306.81;5070192;28;20170;-77
2022/03/08 03:38:55;;;;;;;19.60;15.10;;;;;;;4.27;61.50;94301.19;5074526;28;20202;-77
2022/03/08 03:41:21;;;;;;;22.10;15.20;;;;;;;3.94;62.19;94306.38;5079037;28;20170;-77
2022/03/08 03:43:46;;;;;;;23.90;16.70;;;;;;;4.18;62.20;94297.00;5073990;28;20178;-77
2022/03/08 03:46:12;;;;;;;19.33;16.70;;;;;;;4.20;61.94;94295.84;5069862;28;20185;-77
2022/03/08 03:48:37;;;;;;;22.73;16.60;;;;;;;4.27;61.61;94301.19;5073347;28;20183;-77
2022/03/08 03:51:03;;;;;;;22.67;14.57;;;;;;;4.44;61.31;94302.78;5046010;28;20175;-77
2022/03/08 03:53:29;;;;;;;21.17;16.27;;;;;;;4.52;60.93;94306.34;5076555;28;20246;-78
2022/03/08 03:55:54;;;;;;;21.37;15.77;;;;;;;4.57;60.74;94302.28;5052901;28;20500;-78
2022/03/08 03:58:20;;;;;;;29.80;19.17;;;;;;;4.36;61.28;94305.38;5067683;28;20182;-77
2022/03/08 04:00:45;;;;;;;21.50;14.80;;;;;;;4.59;61.32;94304.69;5078996;28;20178;-77
2022/03/08 04:03:13;;;;;;;26.60;18.63;;;;;;;4.22;62.26;94303.47;5073178;28;20182;-77
2022/03/08 04:05:38;;;;;;;21.97;17.43;;;;;;;4.36;62.27;94302.78;5071577;28;20258;-78
2022/03/08 04:08:04;;;;;;;26.23;18.97;;;;;;;4.35;61.89;94303.75;5067537;28;20789;-77
2022/03/08 04:10:30;;;;;;;23.43;17.43;;;;;;;4.46;62.27;94300.84;5055286;28;20611;-78
2022/03/08 04:12:56;;;;;;;24.83;18.47;;;;;;;4.42;62.09;94309.06;5073993;28;20436;-77
2022/03/08 04:15:21;;;;;;;23.70;17.93;;;;;;;4.38;62.20;94303.44;5071443;28;20241;-77
2022/03/08 04:17:47;;;;;;;24.20;19.00;;;;;;;4.44;61.67;94305.38;5081062;28;20186;-77
2022/03/08 04:20:12;;;;;;;23.90;17.03;;;;;;;4.57;61.50;94301.44;5083821;28;20185;-78
2022/03/08 04:22:38;;;;;;;22.20;15.50;;;;;;;4.75;61.43;94309.81;5084946;28;20190;-78
2022/03/08 04:25:04;;;;;;;22.33;16.43;;;;;;;4.33;62.53;94307.50;5069373;28;20191;-77
2022/03/08 04:27:30;;;;;;;26.20;19.30;;;;;;;4.43;61.94;94303.75;5067220;28;20182;-77
2022/03/08 04:29:55;;;;;;;26.57;17.53;;;;;;;4.49;61.93;94300.47;5079808;28;20408;-78
2022/03/08 04:32:21;;;;;;;22.10;14.57;;;;;;;4.06;62.55;94304.25;5082262;28;20178;-78
2022/03/08 04:34:46;;;;;;;23.27;16.53;;;;;;;4.20;62.65;94306.22;5068468;28;20195;-78
2022/03/08 04:37:12;;;;;;;27.43;18.10;;;;;;;4.33;62.55;94304.91;5072831;28;20186;-77
2022/03/08 04:39:37;;;;;;;23.50;17.50;;;;;;;4.14;62.79;94306.88;5077335;28;20173;-78
2022/03/08 04:42:03;;;;;;;22.73;18.03;;;;;;;4.04;63.19;94296.69;5100405;28;20186;-77
2022/03/08 04:44:29;;;;;;;24.63;18.57;;;;;;;4.27;63.03;94299.41;5066563;28;20171;-77
2022/03/08 04:46:54;;;;;;;27.43;18.87;;;;;;;4.23;62.75;94299.88;5080577;28;20507;-78
2022/03/08 04:49:20;;;;;;;26.43;20.40;;;;;;;4.29;62.40;94299.25;5058372;28;20202;-77
2022/03/08 04:51:45;;;;;;;27.90;20.70;;;;;;;4.45;62.33;94299.19;5067865;28;20202;-77
2022/03/08 04:54:11;;;;;;;30.10;20.17;;;;;;;3.89;63.88;94298.31;5076855;28;20182;-78
2022/03/08 04:56:36;;;;;;;29.40;19.60;;;;;;;4.26;62.89;94305.53;5066199;28;20175;-77
2022/03/08 04:59:03;;;;;;;24.30;17.87;;;;;;;4.35;62.31;94300.38;5066410;28;20209;-77
2022/03/08 05:01:29;;;;;;;26.33;18.60;;;;;;;4.13;62.91;94304.44;5078276;28;20288;-77
2022/03/08 05:03:54;;;;;;;27.03;20.40;;;;;;;4.23;62.21;94302.47;5067140;28;20433;-77
2022/03/08 05:06:20;;;;;;;26.30;18.77;;;;;;;4.08;62.60;94302.34;5047412;28;20242;-77
2022/03/08 05:08:45;;;;;;;13.50;10.70;;;;;;;3.41;63.98;94305.03;5065596;28;20182;-76
2022/03/08 05:11:11;;;;;;;27.87;17.80;;;;;;;3.50;64.29;94298.91;5075437;28;20173;-77
2022/03/08 05:13:37;;;;;;;27.70;19.23;;;;;;;3.24;65.45;94307.56;5083538;28;20209;-77
2022/03/08 05:16:04;;;;;;;26.10;18.75;;;;;;;3.60;64.25;94307.31;5085941;28;20193;-76
2022/03/08 05:18:29;;;;;;;37.23;18.83;;;;;;;3.37;64.82;94308.91;5053684;28;20197;-77
2022/03/08 05:20:55;;;;;;;26.77;19.63;;;;;;;3.37;64.83;94308.91;5085727;28;20506;-77
2022/03/08 05:23:20;;;;;;;23.73;17.20;;;;;;;3.82;63.85;94310.28;5053932;28;20189;-78
2022/03/08 05:25:46;;;;;;;25.47;17.47;;;;;;;3.58;64.58;94306.66;5079918;28;20198;-77
2022/03/08 05:28:12;;;;;;;23.83;18.00;;;;;;;3.54;64.22;94304.56;5077489;28;20185;-78
2022/03/08 05:30:38;;;;;;;27.20;19.13;;;;;;;3.56;64.98;94306.03;5066748;28;20189;-78
2022/03/08 05:33:03;;;;;;;32.20;17.57;;;;;;;3.98;63.46;94307.66;5073813;28;20424;-77
2022/03/08 05:35:29;;;;;;;25.90;18.10;;;;;;;3.89;63.52;94300.91;5069214;28;20166;-77
2022/03/08 05:37:54;;;;;;;27.03;19.53;;;;;;;3.92;63.12;94297.97;5063302;28;20189;-77
2022/03/08 05:40:20;;;;;;;20.83;16.07;;;;;;;3.12;65.12;94301.88;5051873;28;20174;-76
2022/03/08 05:42:45;;;;;;;16.97;12.30;;;;;;;2.65;66.52;94307.50;5067045;28;20190;-77
2022/03/08 05:45:12;;;;;;;23.70;13.73;;;;;;;2.57;67.20;94306.69;5072305;28;20182;-76
2022/03/08 05:47:39;;;;;;;20.65;14.93;;;;;;;3.25;65.57;94305.81;5078320;28;20252;-77
2022/03/08 05:50:06;;;;;;;29.90;18.43;;;;;;;3.71;63.91;94312.19;5075797;28;20201;-77
2022/03/08 05:52:32;;;;;;;29.80;19.67;;;;;;;4.10;63.26;94316.75;5071699;28;20463;-77
2022/03/08 05:54:57;;;;;;;29.50;18.73;;;;;;;3.91;63.28;94317.06;5073420;28;21208;-77
2022/03/08 05:57:23;;;;;;;29.73;20.30;;;;;;;4.21;62.80;94317.38;5046786;28;20210;-77
2022/03/08 05:59:49;;;;;;;25.40;19.40;;;;;;;4.29;61.37;94315.59;5068404;28;20173;-77
2022/03/08 06:02:19;;;;;;;28.53;18.87;;;;;;;4.36;62.37;94313.13;5066691;28;20186;-77
2022/03/08 06:04:45;;;;;;;27.30;18.87;;;;;;;4.38;62.08;94313.81;5070860;28;20814;-77
2022/03/08 06:07:11;;;;;;;25.97;18.93;;;;;;;3.98;61.89;94318.00;5076018;28;20433;-77
2022/03/08 06:12:20;;;;;;;24.97;18.20;;;;;;;3.79;62.96;94319.13;5089626;28;20956;-77
2022/03/08 06:14:46;;;;;;;22.47;18.23;;;;;;;3.98;62.93;94327.56;5053446;28;20547;-76
2022/03/08 06:17:15;;;;;;;23.60;17.67;;;;;;;3.93;62.68;94325.47;5085168;28;20192;-77
2022/03/08 06:19:40;;;;;;;33.83;21.27;;;;;;;3.86;62.75;94324.50;5060864;28;20880;-77
2022/03/08 06:22:06;;;;;;;19.30;13.07;;;;;;;3.78;62.91;94321.91;5087383;28;20434;-77
2022/03/08 06:24:31;;;;;;;24.03;16.37;;;;;;;3.03;64.52;94328.66;5069611;28;20220;-77
2022/03/08 06:26:57;;;;;;;19.20;11.70;;;;;;;3.07;63.89;94329.16;5079167;28;20262;-77
2022/03/08 06:29:23;;;;;;;23.07;16.00;;;;;;;3.73;63.18;94319.78;5076187;28;20181;-76
2022/03/08 06:31:48;;;;;;;23.30;16.03;;;;;;;3.11;64.42;94330.47;5075050;28;20498;-76
2022/03/08 06:34:14;;;;;;;24.07;17.03;;;;;;;3.67;63.40;94331.59;5085897;28;20280;-76
2022/03/08 06:36:40;;;;;;;26.17;18.63;;;;;;;3.61;63.60;94334.81;5087835;28;20207;-76
2022/03/08 06:39:05;;;;;;;22.43;14.30;;;;;;;3.46;63.91;94328.66;5079872;28;20280;-76
2022/03/08 06:41:32;;;;;;;26.33;19.50;;;;;;;3.18;64.20;94323.72;5071474;28;20485;-76
2022/03/08 06:43:59;;;;;;;32.03;18.60;;;;;;;3.67;63.71;94335.97;5072025;28;20182;-76
2022/03/08 06:46:25;;;;;;;25.27;18.60;;;;;;;4.49;61.15;94336.75;5081747;28;20470;-76
2022/03/08 06:48:50;;;;;;;25.33;17.00;;;;;;;3.96;61.78;94340.66;5077805;28;20421;-77
2022/03/08 06:51:16;;;;;;;21.80;12.80;;;;;;;3.39;63.69;94338.81;5089317;28;20162;-76
2022/03/08 06:53:41;;;;;;;23.70;16.60;;;;;;;4.03;62.05;94335.66;5065442;28;20511;-76
2022/03/08 06:56:07;;;;;;;13.73;11.30;;;;;;;3.68;62.25;94338.41;5070097;28;20219;-76
2022/03/08 06:58:32;;;;;;;12.20;9.67;;;;;;;3.52;62.94;94341.75;5076983;28;20435;-76
2022/03/08 07:00:58;;;;;;;23.43;15.00;;;;;;;3.87;62.16;94346.81;5082487;28;20186;-77
2022/03/08 07:03:23;;;;;;;25.23;17.80;;;;;;;3.77;63.13;94343.56;5068878;28;20265;-76
2022/03/08 07:05:48;;;;;;;21.43;15.53;;;;;;;3.32;63.42;94341.22;5086722;28;20196;-76
2022/03/08 07:08:14;;;;;;;18.13;13.77;;;;;;;3.41;63.62;94342.03;5078966;28;20181;-76
2022/03/08 07:10:39;;;;;;;28.73;17.00;;;;;;;3.74;63.04;94341.28;5084798;28;20174;-77
2022/03/08 07:13:05;;;;;;;26.33;15.90;;;;;;;3.82;62.24;94352.47;5087611;28;20248;-76
2022/03/08 07:15:31;;;;;;;23.37;15.40;;;;;;;3.51;63.51;94345.31;5071888;28;20301;-77
2022/03/08 07:17:56;;;;;;;18.13;13.40;;;;;;;3.79;62.37;94341.63;5064058;28;20197;-76
2022/03/08 07:20:22;;;;;;;21.37;15.10;;;;;;;3.47;62.77;94343.19;5067833;28;20162;-76
2022/03/08 07:22:47;;;;;;;21.30;15.57;;;;;;;4.09;61.49;94341.00;5077491;28;20182;-76
2022/03/08 07:25:15;;;;;;;14.40;9.27;;;;;;;3.40;62.26;94337.06;5085317;28;20201;-76
2022/03/08 07:27:41;;;;;;;20.67;14.80;;;;;;;3.56;63.13;94344.81;5057783;28;20193;-76
2022/03/08 07:30:07;;;;;;;26.03;16.60;;;;;;;3.39;63.82;94340.59;5067363;28;20424;-76
2022/03/08 07:32:33;;;;;;;20.37;13.63;;;;;;;3.46;63.12;94355.31;5050119;28;20440;-76
2022/03/08 07:34:59;;;;;;;21.40;14.53;;;;;;;3.53;62.94;94350.34;5056069;28;20467;-77
2022/03/08 07:37:24;;;;;;;18.50;14.50;;;;;;;3.81;61.36;94343.06;5067509;28;20189;-77
2022/03/08 07:39:50;;;;;;;22.40;14.90;;;;;;;3.85;61.22;94339.22;5073139;28;20181;-77
2022/03/08 07:42:16;;;;;;;22.00;16.40;;;;;;;3.89;61.47;94350.06;5068161;28;20262;-76
2022/03/08 07:44:42;;;;;;;17.37;8.83;;;;;;;3.95;60.40;94338.28;5051809;28;20535;-76
2022/03/08 07:47:10;;;;;;;17.80;13.07;;;;;;;3.30;61.76;94345.75;5081331;28;20177;-76
2022/03/08 07:49:36;;;;;;;25.13;17.00;;;;;;;3.40;62.28;94347.41;5084795;28;20196;-76
2022/03/08 07:52:02;;;;;;;10.40;7.00;;;;;;;2.83;63.01;94348.78;5082720;28;20428;-76
2022/03/08 07:54:27;;;;;;;17.83;13.30;;;;;;;2.69;63.07;94341.59;5075593;28;20173;-76
2022/03/08 07:56:53;;;;;;;16.40;13.77;;;;;;;2.33;63.86;94341.72;5074498;28;20445;-76
2022/03/08 07:59:19;;;;;;;12.23;8.33;;;;;;;2.46;63.69;94341.31;5082224;28;20212;-76
2022/03/08 08:01:44;;;;;;;20.00;14.83;;;;;;;2.40;63.70;94339.34;5086356;28;20177;-76
2022/03/08 08:04:10;;;;;;;10.33;8.17;;;;;;;2.35;63.49;94350.09;5062546;28;20194;-76
2022/03/08 08:06:35;;;;;;;23.07;16.20;;;;;;;3.07;62.60;94344.69;5069100;28;20228;-76
2022/03/08 08:09:01;;;;;;;22.47;16.37;;;;;;;3.58;60.89;94349.84;5079540;28;20301;-77
2022/03/08 08:11:26;;;;;;;22.00;13.73;;;;;;;3.71;60.73;94345.03;5083182;28;20257;-76
2022/03/08 08:13:53;;;;;;;20.77;15.20;;;;;;;3.99;60.53;94340.34;5065802;28;20257;-76
2022/03/08 08:16:19;;;;;;;21.77;15.63;;;;;;;3.69;61.10;94347.75;5086227;28;20609;-76
2022/03/08 08:18:45;;;;;;;19.60;11.00;;;;;;;3.16;61.73;94348.13;5074741;28;20509;-76
2022/03/08 08:21:11;;;;;;;12.47;7.10;;;;;;;2.72;62.84;94351.63;5064969;28;20416;-77
2022/03/08 08:23:36;;;;;;;22.40;15.10;;;;;;;2.91;61.83;94353.97;5080885;28;20179;-76
2022/03/08 08:26:02;;;;;;;23.27;15.90;;;;;;;3.96;59.53;94351.03;5075680;28;20473;-77
2022/03/08 08:28:28;;;;;;;25.07;15.47;;;;;;;3.68;60.74;94347.91;5066417;28;20175;-75
2022/03/08 08:30:53;;;;;;;28.43;16.87;;;;;;;3.26;61.00;94349.63;5062024;28;20592;-76
2022/03/08 08:33:19;;;;;;;22.30;15.47;;;;;;;2.95;62.14;94351.91;5066987;28;20716;-76
2022/03/08 08:35:44;;;;;;;20.43;15.60;;;;;;;3.88;59.51;94351.03;5060441;28;20256;-76
2022/03/08 08:38:10;;;;;;;22.83;16.00;;;;;;;3.30;59.80;94361.25;5075043;28;20182;-76
2022/03/08 08:40:35;;;;;;;19.17;12.87;;;;;;;3.01;61.26;94365.97;5052905;28;20181;-76
2022/03/08 08:43:03;;;;;;;23.40;15.50;;;;;;;3.75;59.85;94364.44;5070710;28;20263;-76
2022/03/08 08:45:30;;;;;;;23.33;17.10;;;;;;;3.30;60.06;94363.84;5065821;28;20190;-76
2022/03/08 08:47:56;;;;;;;22.45;17.98;;;;;;;3.65;59.47;94374.91;5075027;28;20260;-77
2022/03/08 08:50:21;;;;;;;23.20;16.80;;;;;;;3.75;59.20;94377.38;5082913;28;20174;-77
2022/03/08 08:52:46;;;;;;;20.77;15.37;;;;;;;3.36;60.19;94364.16;5076543;28;20511;-77
2022/03/08 08:55:12;;;;;;;25.80;18.23;;;;;;;2.86;60.86;94363.16;5051557;28;20250;-77
2022/03/08 08:57:38;;;;;;;24.67;17.27;;;;;;;3.38;59.55;94373.41;5086176;28;20186;-77
2022/03/08 09:00:06;;;;;;;25.02;15.70;;;;;;;3.44;58.49;94372.78;5067505;28;20178;-76
2022/03/08 09:02:32;;;;;;;23.17;16.92;;;;;;;3.19;58.90;94378.81;5072746;28;20184;-76
2022/03/08 09:04:57;;;;;;;22.50;15.57;;;;;;;3.05;58.97;94370.69;5069705;28;20563;-76
2022/03/08 09:07:23;;;;;;;23.33;17.77;;;;;;;3.19;58.25;94369.31;5084145;28;20428;-76
2022/03/08 09:09:49;;;;;;;26.80;18.17;;;;;;;3.77;57.40;94364.28;5061803;28;20185;-77
2022/03/08 09:12:15;;;;;;;30.03;18.70;;;;;;;3.76;57.53;94370.44;5082487;28;20181;-76
2022/03/08 09:14:40;;;;;;;20.73;16.07;;;;;;;2.94;59.98;94363.22;5077590;28;20215;-76
2022/03/08 09:17:07;;;;;;;25.10;17.60;;;;;;;3.57;57.53;94361.97;5077321;28;20554;-76
2022/03/08 09:19:32;;;;;;;31.33;19.23;;;;;;;3.00;59.24;94370.34;5080056;28;20201;-76
2022/03/08 09:21:58;;;;;;;13.90;10.57;;;;;;;3.11;57.75;94366.66;5074123;28;20186;-76
2022/03/08 09:24:23;;;;;;;22.63;15.07;;;;;;;3.02;59.28;94365.03;5083643;28;20181;-76
2022/03/08 09:26:49;;;;;;;27.77;16.40;;;;;;;2.74;59.58;94371.19;5058578;28;20178;-76
2022/03/08 09:29:14;;;;;;;27.60;17.00;;;;;;;3.14;58.10;94376.69;5055475;28;20182;-76
2022/03/08 09:31:40;;;;;;;23.57;16.00;;;;;;;2.91;58.45;94361.72;5085239;28;20189;-76
2022/03/08 09:34:05;;;;;;;38.90;17.63;;;;;;;3.32;57.68;94367.09;5079709;28;20252;-76
2022/03/08 09:36:30;;;;;;;32.23;20.50;;;;;;;3.41;58.75;94367.91;5072277;28;20174;-76
2022/03/08 09:38:58;;;;;;;22.13;16.50;;;;;;;2.92;58.00;94365.13;5050160;28;20262;-77
2022/03/08 09:41:24;;;;;;;29.77;18.60;;;;;;;3.93;56.52;94366.88;5056517;28;20183;-76
2022/03/08 09:43:50;;;;;;;31.30;21.47;;;;;;;4.17;55.80;94366.06;5083417;28;20693;-77
2022/03/08 09:46:16;;;;;;;34.50;20.73;;;;;;;3.80;56.88;94371.72;5082467;28;20448;-75
2022/03/08 09:48:43;;;;;;;27.83;18.70;;;;;;;4.10;55.25;94373.69;5054319;28;20484;-76
2022/03/08 09:51:09;;;;;;;30.87;19.30;;;;;;;4.01;55.37;94369.47;5074377;28;20174;-76
2022/03/08 09:53:35;;;;;;;33.93;21.37;;;;;;;4.11;55.26;94369.31;5073483;28;20432;-76
2022/03/08 09:56:02;;;;;;;33.93;20.73;;;;;;;3.85;56.32;94374.63;5058994;28;20534;-77
2022/03/08 09:58:27;;;;;;;25.30;17.90;;;;;;;3.29;56.91;94364.81;5059870;28;20937;-76
2022/03/08 10:00:59;;;;;;;23.13;18.53;;;;;;;3.77;55.56;94380.59;5059897;28;20415;-76
2022/03/08 10:03:39;;;;;;;19.63;14.10;;;;;;;3.07;57.80;94367.94;5062123;28;20189;-76
2022/03/08 10:06:06;;;;;;;34.10;20.43;;;;;;;3.92;55.95;94378.19;5085520;28;20189;-76
2022/03/08 10:08:33;;;;;;;30.70;21.20;;;;;;;3.35;57.00;94367.72;5078098;28;20440;-76
2022/03/08 10:11:00;;;;;;;32.35;20.52;;;;;;;2.95;58.52;94369.19;5068340;28;20479;-77
2022/03/08 10:13:32;;;;;;;34.40;21.90;;;;;;;3.47;56.56;94371.63;5071928;28;20178;-76
2022/03/08 10:16:16;;;;;;;29.42;20.55;;;;;;;3.44;56.47;94372.78;5084422;28;20225;-76
2022/03/08 10:18:46;;;;;;;33.47;19.07;;;;;;;3.74;56.09;94378.34;5053321;28;20216;-77
2022/03/08 10:21:42;;;;;;;33.17;19.47;;;;;;;4.55;54.38;94381.91;5069516;28;20409;-77
2022/03/08 10:24:36;;;;;;;34.83;22.23;;;;;;;4.97;54.05;94367.09;5047246;28;20497;-76
2022/03/08 10:27:06;;;;;;;29.27;20.13;;;;;;;5.19;52.45;94379.34;5073069;28;20898;-76
2022/03/08 10:29:36;;;;;;;15.00;8.53;;;;;;;4.40;51.98;94371.44;5074023;28;20443;-76
2022/03/08 10:32:08;;;;;;;29.30;19.53;;;;;;;4.73;52.90;94368.00;5080791;28;20462;-76
2022/03/08 10:34:35;;;;;;;31.07;21.13;;;;;;;5.77;51.69;94363.53;5057559;28;20426;-76
2022/03/08 10:37:14;;;;;;;27.63;20.20;;;;;;;5.61;51.54;94367.81;5078304;28;21045;-77
2022/03/08 10:40:03;;;;;;;25.97;18.97;;;;;;;4.64;53.25;94365.41;5048082;28;20959;-76
2022/03/08 10:42:35;;;;;;;24.63;15.43;;;;;;;4.42;53.41;94366.91;5074219;28;20447;-77
2022/03/08 10:45:04;;;;;;;25.60;16.50;;;;;;;4.31;53.81;94364.63;5074310;28;20524;-76
2022/03/08 10:47:39;;;;;;;29.23;22.13;;;;;;;4.79;53.32;94367.31;5076667;28;20435;-76
2022/03/08 10:50:05;;;;;;;20.57;16.17;;;;;;;4.29;53.09;94357.03;5071807;28;20423;-77
2022/03/08 10:52:34;;;;;;;28.97;18.80;;;;;;;4.62;52.82;94359.56;5084457;28;20523;-76
2022/03/08 10:55:18;;;;;;;23.90;15.87;;;;;;;4.74;52.64;94359.22;5064177;28;20856;-76
2022/03/08 10:57:50;;;;;;;21.43;13.20;;;;;;;4.86;52.27;94363.91;5064715;28;20478;-77
2022/03/08 11:00:20;;;;;;;26.13;18.50;;;;;;;5.11;51.41;94369.00;5076056;28;20802;-76
2022/03/08 11:02:57;;;;;;;24.60;18.10;;;;;;;4.89;51.32;94370.53;5067374;28;20437;-76
2022/03/08 11:05:25;;;;;;;22.20;14.03;;;;;;;4.68;52.02;94371.88;5093328;28;20443;-76
2022/03/08 11:07:52;;;;;;;28.13;18.47;;;;;;;4.69;52.62;94362.31;5083091;28;20443;-76
2022/03/08 11:10:19;;;;;;;29.83;18.60;;;;;;;5.43;50.43;94364.69;5060983;28;20443;-76
2022/03/08 11:12:45;;;;;;;12.50;9.17;;;;;;;5.22;51.83;94368.66;5085746;28;20412;-76
2022/03/08 11:15:14;;;;;;;25.40;19.87;;;;;;;6.10;49.65;94361.53;5092291;28;20490;-76
2022/03/08 11:17:42;;;;;;;20.73;14.70;;;;;;;5.84;49.50;94351.47;5087737;28;20504;-76
2022/03/08 11:20:10;;;;;;;27.33;18.17;;;;;;;5.81;49.78;94357.00;5080205;28;20478;-76
2022/03/08 11:22:37;;;;;;;18.40;13.57;;;;;;;4.59;50.87;94346.13;5073970;28;20504;-76
2022/03/08 11:25:04;;;;;;;8.23;6.40;;;;;;;4.36;51.57;94351.19;5079705;28;20458;-76
2022/03/08 11:27:30;;;;;;;25.77;18.90;;;;;;;5.00;51.14;94351.22;5087020;28;20495;-76